Time;durP1;ratioP1;P1;durP2;ratioP2;P2;SDS_P1;SDS_P2;PMS_P1;PMS_P2;Temp;Humidity;BMP_temperature;BMP_pressure;BME280_temperature;BME280_humidity;BME280_pressure;Samples;Min_cycle;Max_cycle;Signal;HPM_P1;HPM_P2
2022/07/12 00:01:45;;;;;;;0.50;0.40;;;22.20;99.90;;;;;;13129796;22;20187;-86
2022/07/12 00:06:47;;;;;;;0.32;0.32;;;22.20;99.90;;;;;;13110915;22;20172;-85
2022/07/12 00:11:50;;;;;;;0.40;0.40;;;22.20;99.90;;;;;;13084499;22;20172;-85
2022/07/12 00:16:52;;;;;;;0.40;0.30;;;22.20;99.90;;;;;;13083461;22;20196;-85
2022/07/12 00:21:55;;;;;;;0.47;0.47;;;22.20;99.90;;;;;;13111543;22;20173;-85
2022/07/12 00:26:57;;;;;;;0.70;0.40;;;22.10;99.90;;;;;;13083472;22;20169;-85
2022/07/12 00:32:00;;;;;;;0.63;0.60;;;22.10;99.90;;;;;;13083704;22;20180;-85
2022/07/12 00:37:03;;;;;;;0.43;0.30;;;22.10;99.90;;;;;;13111289;22;20194;-85
2022/07/12 00:42:05;;;;;;;0.57;0.45;;;22.10;99.90;;;;;;13082491;22;20604;-85
2022/07/12 00:47:16;;;;;;;1.55;0.65;;;22.10;99.90;;;;;;13111145;22;20192;-85
2022/07/12 00:52:18;;;;;;;1.00;0.50;;;22.00;99.90;;;;;;13119797;22;20172;-85
2022/07/12 00:57:21;;;;;;;1.10;0.40;;;22.00;99.90;;;;;;13111184;22;20188;-85
2022/07/12 01:02:24;;;;;;;1.35;0.50;;;22.00;99.90;;;;;;13110719;22;20206;-85
2022/07/12 01:07:27;;;;;;;2.10;0.47;;;22.00;99.90;;;;;;13083406;22;20177;-85
2022/07/12 01:12:30;;;;;;;0.80;0.50;;;22.00;99.90;;;;;;13082370;22;20523;-85
2022/07/12 01:17:33;;;;;;;0.30;0.30;;;22.00;99.90;;;;;;13082215;22;20196;-85
2022/07/12 01:22:40;;;;;;;0.50;0.40;;;21.90;99.90;;;;;;13110282;22;20168;-86
2022/07/12 01:27:43;;;;;;;0.95;0.50;;;21.90;99.90;;;;;;13109060;22;20180;-85
2022/07/12 01:32:45;;;;;;;0.52;0.52;;;21.90;99.90;;;;;;13057148;22;20634;-86
2022/07/12 01:37:49;;;;;;;0.30;0.30;;;21.80;99.90;;;;;;13083007;22;20202;-86
2022/07/12 01:42:52;;;;;;;0.88;0.50;;;21.90;99.90;;;;;;13081946;22;20218;-86
2022/07/12 01:47:58;;;;;;;1.00;0.60;;;21.90;99.90;;;;;;13109780;22;20196;-86
2022/07/12 01:53:04;;;;;;;0.98;0.47;;;21.80;99.90;;;;;;13088206;22;20202;-85
2022/07/12 01:58:07;;;;;;;0.40;0.32;;;21.80;99.90;;;;;;13080951;22;20199;-86
2022/07/12 02:03:10;;;;;;;0.60;0.50;;;21.90;99.90;;;;;;13082292;22;20168;-86
2022/07/12 02:08:13;;;;;;;3.60;0.50;;;21.80;99.90;;;;;;13109202;22;20168;-86
2022/07/12 02:13:15;;;;;;;0.30;0.30;;;21.80;99.90;;;;;;13082333;22;20168;-86
2022/07/12 02:18:18;;;;;;;0.50;0.40;;;21.80;99.90;;;;;;13081284;22;20188;-86
2022/07/12 02:23:20;;;;;;;0.77;0.40;;;21.80;99.90;;;;;;13109400;22;20165;-85
2022/07/12 02:28:23;;;;;;;0.63;0.52;;;21.80;99.90;;;;;;13109143;22;20209;-86
2022/07/12 02:33:25;;;;;;;1.02;0.50;;;21.80;99.90;;;;;;13109161;22;20221;-86
2022/07/12 02:38:28;;;;;;;0.85;0.50;;;21.80;99.90;;;;;;13080455;22;20188;-86
2022/07/12 02:43:32;;;;;;;0.45;0.35;;;21.80;99.90;;;;;;13126052;22;20164;-85
2022/07/12 02:48:37;;;;;;;0.60;0.40;;;21.80;99.90;;;;;;13114622;22;20188;-85
2022/07/12 02:53:39;;;;;;;0.73;0.63;;;21.80;99.90;;;;;;13083527;22;20237;-85
2022/07/12 02:58:43;;;;;;;0.70;0.55;;;21.80;99.90;;;;;;13113025;22;20188;-86
2022/07/12 03:03:45;;;;;;;0.98;0.45;;;21.80;99.90;;;;;;13084885;22;20164;-85
2022/07/12 03:08:48;;;;;;;1.00;0.55;;;21.80;99.90;;;;;;13112840;22;20195;-85
2022/07/12 03:13:50;;;;;;;0.75;0.60;;;21.80;99.90;;;;;;13114014;22;20230;-86
2022/07/12 03:18:53;;;;;;;0.60;0.50;;;21.80;99.90;;;;;;13083874;22;20273;-85
2022/07/12 03:23:56;;;;;;;1.60;0.70;;;21.80;99.90;;;;;;13112467;22;20187;-85
2022/07/12 03:29:00;;;;;;;0.63;0.60;;;21.80;99.90;;;;;;13132385;22;20168;-85
2022/07/12 03:34:03;;;;;;;0.90;0.40;;;21.80;99.90;;;;;;13112944;22;20168;-85
2022/07/12 03:39:05;;;;;;;2.50;0.40;;;21.80;99.90;;;;;;13112013;22;20188;-85
2022/07/12 03:44:08;;;;;;;0.50;0.50;;;21.80;99.90;;;;;;13112518;22;20186;-85
2022/07/12 03:49:10;;;;;;;1.40;0.80;;;21.70;99.90;;;;;;13111706;22;20252;-85
2022/07/12 03:54:13;;;;;;;1.10;0.60;;;21.50;99.90;;;;;;13112523;22;20172;-85
2022/07/12 03:59:15;;;;;;;0.50;0.50;;;21.60;99.90;;;;;;13058451;22;20579;-85
2022/07/12 04:04:18;;;;;;;0.77;0.70;;;21.70;99.90;;;;;;13082767;22;20165;-85
2022/07/12 04:09:20;;;;;;;0.60;0.50;;;21.40;99.90;;;;;;13109440;22;20695;-85
2022/07/12 04:14:23;;;;;;;0.60;0.50;;;21.50;99.90;;;;;;13109503;22;20168;-85
2022/07/12 04:19:31;;;;;;;1.48;0.82;;;21.70;99.90;;;;;;13082171;22;20188;-85
2022/07/12 04:24:33;;;;;;;1.15;0.65;;;21.60;99.90;;;;;;13082822;22;20168;-84
2022/07/12 04:29:35;;;;;;;0.90;0.73;;;21.70;99.90;;;;;;13082911;22;20511;-84
2022/07/12 04:34:38;;;;;;;1.02;0.70;;;21.20;99.90;;;;;;13109949;22;20210;-85
2022/07/12 04:39:40;;;;;;;0.98;0.80;;;21.50;99.90;;;;;;13099887;22;20206;-85
2022/07/12 04:44:43;;;;;;;1.63;0.93;;;21.50;99.90;;;;;;13082456;22;20485;-85
2022/07/12 04:49:45;;;;;;;0.90;0.70;;;21.60;99.90;;;;;;13084544;22;20583;-84
2022/07/12 04:54:47;;;;;;;1.73;1.20;;;21.40;99.90;;;;;;13128806;22;20206;-84
2022/07/12 04:59:50;;;;;;;0.82;0.65;;;21.50;99.90;;;;;;13082437;22;20188;-84
2022/07/12 05:04:53;;;;;;;1.15;0.60;;;20.80;99.90;;;;;;13110138;22;20165;-85
2022/07/12 05:09:55;;;;;;;1.20;0.73;;;21.40;99.90;;;;;;13126425;22;20221;-85
2022/07/12 05:14:58;;;;;;;1.45;0.95;;;21.50;99.90;;;;;;13081818;22;20241;-85
2022/07/12 05:20:00;;;;;;;0.70;0.52;;;21.40;99.90;;;;;;13109423;22;20184;-85
2022/07/12 05:25:04;;;;;;;1.65;0.80;;;21.00;99.90;;;;;;13081951;22;20241;-85
2022/07/12 05:30:07;;;;;;;1.45;0.80;;;20.90;99.90;;;;;;13127522;22;20173;-85
2022/07/12 05:35:10;;;;;;;1.60;0.90;;;20.50;99.90;;;;;;13055212;22;20238;-85
2022/07/12 05:40:12;;;;;;;2.60;0.77;;;20.60;99.90;;;;;;13128028;22;20206;-85
2022/07/12 05:45:15;;;;;;;1.00;0.93;;;20.80;99.90;;;;;;13109223;22;20160;-85
2022/07/12 05:50:17;;;;;;;0.93;0.82;;;21.20;99.90;;;;;;13055115;22;20237;-85
2022/07/12 05:55:20;;;;;;;2.55;0.90;;;21.10;99.90;;;;;;13109447;22;20203;-85
2022/07/12 06:00:22;;;;;;;1.50;1.08;;;21.20;99.90;;;;;;13081380;22;20210;-85
2022/07/12 06:05:25;;;;;;;3.75;0.70;;;21.20;99.90;;;;;;13126825;22;20191;-86
2022/07/12 06:10:28;;;;;;;0.85;0.70;;;20.20;99.90;;;;;;13080022;22;20257;-85
2022/07/12 06:15:30;;;;;;;3.78;1.08;;;20.80;99.90;;;;;;13109007;22;20164;-85
2022/07/12 06:20:35;;;;;;;0.98;0.75;;;20.90;99.90;;;;;;13081849;22;20188;-85
2022/07/12 06:25:38;;;;;;;1.02;0.82;;;21.60;99.90;;;;;;13109479;22;20229;-84
2022/07/12 06:30:46;;;;;;;2.25;0.90;;;21.00;99.90;;;;;;13100455;22;20169;-85
2022/07/12 06:35:48;;;;;;;1.00;0.77;;;21.40;99.90;;;;;;13108510;22;20176;-85
2022/07/12 06:40:51;;;;;;;1.45;0.73;;;21.60;99.90;;;;;;13079627;22;20196;-85
2022/07/12 06:45:53;;;;;;;1.40;0.77;;;21.80;99.90;;;;;;13109400;22;20192;-93
2022/07/12 06:50:56;;;;;;;4.38;1.10;;;20.90;99.90;;;;;;13112813;22;20552;-92
2022/07/12 06:55:59;;;;;;;4.57;1.73;;;20.60;99.90;;;;;;13119584;22;20215;-96
2022/07/12 07:01:40;;;;;;;4.47;0.90;;;20.10;99.90;;;;;;13017022;22;20208;-96
2022/07/12 07:07:43;;;;;;;5.10;1.00;;;20.60;99.90;;;;;;13130675;22;20176;-95
2022/07/12 07:12:48;;;;;;;3.72;1.02;;;20.80;99.90;;;;;;13105132;22;20169;-96
2022/07/12 07:18:23;;;;;;;5.18;0.77;;;21.10;99.90;;;;;;13157857;22;20196;-95
2022/07/12 07:23:29;;;;;;;3.03;1.00;;;21.20;99.90;;;;;;13151416;22;20177;-95
2022/07/12 07:30:51;;;;;;;2.67;0.77;;;21.60;99.90;;;;;;13115574;22;20203;-95
2022/07/12 07:33:56;;;;;;;2.92;0.93;;;21.80;99.90;;;;;;13124549;22;20172;-95
2022/07/12 07:52:27;;;;;;;1.52;0.75;;;22.00;99.90;;;;;;13075883;22;20231;-95
2022/07/12 07:58:32;;;;;;;1.88;1.00;;;22.10;99.90;;;;;;13076582;22;20188;-96
2022/07/12 08:16:57;;;;;;;2.17;0.80;;;21.70;99.90;;;;;;13148219;22;20204;-95
2022/07/12 08:22:03;;;;;;;1.67;0.75;;;22.10;99.90;;;;;;13090537;22;20238;-95
2022/07/12 08:27:09;;;;;;;2.42;0.70;;;22.10;99.90;;;;;;13090244;22;20176;-95
2022/07/12 08:32:12;;;;;;;0.77;0.63;;;21.70;99.90;;;;;;13090940;22;20184;-96
2022/07/12 08:37:25;;;;;;;0.65;0.60;;;22.10;99.90;;;;;;13090900;22;20188;-96
2022/07/12 08:42:33;;;;;;;2.35;0.63;;;21.90;99.90;;;;;;13090870;22;20201;-94
2022/07/12 08:47:38;;;;;;;1.35;1.05;;;22.00;99.90;;;;;;13088217;22;20177;-96
2022/07/12 08:52:52;;;;;;;2.63;1.00;;;22.10;99.90;;;;;;13099122;22;20177;-96
2022/07/12 08:58:21;;;;;;;1.73;0.75;;;22.40;99.90;;;;;;13147476;22;20611;-96
2022/07/12 09:03:25;;;;;;;0.90;0.80;;;22.20;99.90;;;;;;13073739;22;20172;-96
2022/07/12 09:15:20;;;;;;;2.05;0.80;;;22.00;99.90;;;;;;13127695;22;20611;-95
2022/07/12 09:20:32;;;;;;;4.22;0.88;;;22.10;99.90;;;;;;13106448;22;20539;-96
2022/07/12 09:25:50;;;;;;;3.33;0.63;;;22.30;99.90;;;;;;13102192;22;20201;-96
2022/07/12 09:30:58;;;;;;;1.08;0.73;;;22.00;99.90;;;;;;13098780;22;20202;-94
2022/07/12 09:41:50;;;;;;;0.85;0.60;;;22.00;99.90;;;;;;13128620;22;20196;-96
2022/07/12 09:47:24;;;;;;;2.97;0.70;;;22.50;99.90;;;;;;13099639;22;20180;-96
2022/07/12 10:04:02;;;;;;;1.75;0.60;;;22.60;99.90;;;;;;13060156;22;20246;-95
2022/07/12 10:09:06;;;;;;;0.63;0.40;;;22.40;99.90;;;;;;13009366;22;20185;-95
2022/07/12 10:14:12;;;;;;;2.58;0.70;;;22.40;99.90;;;;;;13041351;22;20235;-95
2022/07/12 10:19:32;;;;;;;0.50;0.50;;;22.30;99.90;;;;;;13011449;22;20193;-94
2022/07/12 10:24:42;;;;;;;0.98;0.93;;;22.20;99.90;;;;;;13016451;22;20180;-96
2022/07/12 10:30:05;;;;;;;0.60;0.60;;;22.00;99.90;;;;;;13040149;22;20214;-94
2022/07/12 10:35:23;;;;;;;3.20;0.95;;;22.20;99.90;;;;;;13036024;22;20207;-95
2022/07/12 10:40:29;;;;;;;4.90;1.00;;;22.10;99.90;;;;;;13027494;22;20226;-95
2022/07/12 10:45:39;;;;;;;1.25;0.70;;;22.30;99.90;;;;;;13028058;22;20173;-95
2022/07/12 10:56:04;;;;;;;0.63;0.40;;;22.30;99.90;;;;;;13054572;22;20565;-95
2022/07/12 11:01:37;;;;;;;0.80;0.63;;;22.30;99.90;;;;;;13060927;22;20201;-95
2022/07/12 11:06:49;;;;;;;1.65;0.50;;;22.10;99.90;;;;;;13029726;22;20165;-95
2022/07/12 11:11:52;;;;;;;1.80;0.52;;;22.30;99.90;;;;;;13024062;22;20180;-95
2022/07/12 11:16:57;;;;;;;2.63;0.50;;;22.50;99.90;;;;;;13056492;22;20226;-96
2022/07/12 11:22:01;;;;;;;0.93;0.57;;;22.60;99.90;;;;;;13021430;22;20205;-95
2022/07/12 11:27:06;;;;;;;1.58;0.90;;;22.90;99.90;;;;;;13053822;22;20177;-94
2022/07/12 11:32:20;;;;;;;5.43;0.80;;;22.70;99.90;;;;;;13039166;22;20238;-96
2022/07/12 11:37:32;;;;;;;1.15;0.68;;;22.50;99.90;;;;;;13046131;22;20184;-96
2022/07/12 11:42:37;;;;;;;4.75;1.25;;;22.30;99.90;;;;;;13032085;22;20169;-94
2022/07/12 11:47:40;;;;;;;1.30;0.50;;;22.50;99.90;;;;;;13029028;22;20212;-95
2022/07/12 11:52:44;;;;;;;0.80;0.70;;;23.00;99.80;;;;;;13049486;22;20207;-95
2022/07/12 11:58:17;;;;;;;0.57;0.52;;;22.80;99.90;;;;;;13039797;22;20193;-96
2022/07/12 12:03:32;;;;;;;1.48;0.55;;;22.70;99.90;;;;;;13028405;22;20231;-96
2022/07/12 12:08:52;;;;;;;2.22;0.65;;;22.80;96.10;;;;;;12978471;22;20182;-95
2022/07/12 12:14:02;;;;;;;1.05;0.55;;;22.60;95.90;;;;;;13001008;22;20177;-96
2022/07/12 12:19:11;;;;;;;1.33;0.63;;;22.80;99.90;;;;;;12974944;22;20201;-95
2022/07/12 12:24:17;;;;;;;2.75;1.88;;;22.90;95.80;;;;;;12969769;22;20158;-95
2022/07/12 12:29:41;;;;;;;0.85;0.50;;;22.70;97.10;;;;;;12977281;22;20235;-96
2022/07/12 12:35:10;;;;;;;1.42;0.70;;;23.10;95.40;;;;;;12993639;22;20182;-96
2022/07/12 12:40:26;;;;;;;1.60;0.60;;;22.90;99.00;;;;;;13006066;22;20194;-96
2022/07/12 12:45:29;;;;;;;2.58;0.60;;;22.40;99.90;;;;;;13020335;22;20187;-96
2022/07/12 12:50:44;;;;;;;1.10;0.60;;;22.40;98.30;;;;;;12974690;22;20204;-96
2022/07/12 12:55:50;;;;;;;0.57;0.50;;;22.90;96.00;;;;;;12963714;22;20181;-96
2022/07/12 13:00:54;;;;;;;3.17;0.40;;;23.20;97.60;;;;;;12981740;22;20226;-96
2022/07/12 13:06:00;;;;;;;0.60;0.50;;;23.20;95.20;;;;;;13048342;22;20177;-96
2022/07/12 13:11:22;;;;;;;2.33;0.65;;;23.00;98.20;;;;;;13023821;22;20177;-96
2022/07/12 13:16:25;;;;;;;1.05;0.40;;;23.00;99.80;;;;;;13018961;22;20253;-96
2022/07/12 13:21:28;;;;;;;1.15;0.32;;;23.30;95.10;;;;;;13026036;22;20197;-96
2022/07/12 13:26:39;;;;;;;4.68;0.63;;;23.30;99.30;;;;;;13061808;22;20227;-96
2022/07/12 13:31:42;;;;;;;2.50;0.38;;;23.40;97.30;;;;;;13057405;22;20207;-96
2022/07/12 13:36:45;;;;;;;1.92;0.50;;;23.50;94.10;;;;;;13032052;22;20203;-96
2022/07/12 13:41:49;;;;;;;1.10;0.47;;;23.40;94.30;;;;;;13037277;22;20213;-95
2022/07/12 13:46:51;;;;;;;0.90;0.55;;;23.30;97.30;;;;;;13033179;22;20757;-90
2022/07/12 13:51:54;;;;;;;1.75;0.77;;;23.70;91.50;;;;;;13044017;22;20176;-88
2022/07/12 13:56:56;;;;;;;8.68;0.90;;;24.50;78.10;;;;;;13043423;22;20177;-88
2022/07/12 14:01:59;;;;;;;11.15;1.05;;;;;;;;;;13046390;22;20288;-88
2022/07/12 14:07:01;;;;;;;9.52;1.23;;;25.50;76.90;;;;;;13043456;22;20234;-88
2022/07/12 14:12:04;;;;;;;8.65;1.27;;;25.30;78.10;;;;;;13046054;22;20219;-89
2022/07/12 14:17:07;;;;;;;4.25;0.88;;;25.80;72.50;;;;;;13042914;22;20215;-88
2022/07/12 14:22:09;;;;;;;8.70;1.15;;;25.90;75.20;;;;;;13038798;22;20215;-88
2022/07/12 14:27:12;;;;;;;4.03;0.50;;;26.00;73.60;;;;;;13040308;22;20180;-89
2022/07/12 14:32:15;;;;;;;22.38;1.27;;;25.80;75.00;;;;;;13039289;22;20165;-88
2022/07/12 14:37:18;;;;;;;1.92;0.30;;;25.40;66.30;;;;;;13052673;22;20230;-88
2022/07/12 14:42:20;;;;;;;2.95;1.27;;;25.20;62.90;;;;;;13042148;22;20249;-88
2022/07/12 14:47:23;;;;;;;1.77;0.35;;;25.80;80.90;;;;;;13041339;22;20515;-88
2022/07/12 14:52:26;;;;;;;2.95;0.30;;;25.60;69.70;;;;;;13043210;22;20185;-89
2022/07/12 14:57:28;;;;;;;1.48;0.38;;;25.60;76.60;;;;;;13062521;22;20515;-90
2022/07/12 15:02:31;;;;;;;4.43;0.50;;;25.70;78.90;;;;;;13049063;22;20188;-90
2022/07/12 15:07:34;;;;;;;2.22;0.93;;;25.90;71.90;;;;;;13024895;22;20238;-94
2022/07/12 15:12:42;;;;;;;2.20;0.80;;;24.50;64.30;;;;;;13048433;22;20177;-95
2022/07/12 15:17:53;;;;;;;0.32;0.20;;;24.80;62.00;;;;;;13055341;22;20199;-93
2022/07/12 15:22:56;;;;;;;2.15;0.57;;;24.30;62.90;;;;;;13051244;22;20189;-89
2022/07/12 15:27:59;;;;;;;0.20;0.20;;;24.80;62.30;;;;;;13048348;22;20505;-89
2022/07/12 15:33:01;;;;;;;0.47;0.30;;;25.20;62.10;;;;;;13020606;22;20177;-89
2022/07/12 15:38:04;;;;;;;0.43;0.40;;;25.30;63.30;;;;;;13020905;22;20540;-88
2022/07/12 15:43:07;;;;;;;0.30;0.30;;;25.30;63.80;;;;;;13046784;22;20211;-89
2022/07/12 15:48:10;;;;;;;0.47;0.30;;;25.00;59.80;;;;;;13048271;22;20169;-90
2022/07/12 15:53:30;;;;;;;0.80;0.43;;;25.10;66.60;;;;;;13020355;22;20181;-90
2022/07/12 15:58:35;;;;;;;4.05;0.57;;;25.30;65.20;;;;;;13020631;22;20172;-89
2022/07/12 16:03:37;;;;;;;0.73;0.30;;;25.30;66.10;;;;;;13048520;22;20499;-89
2022/07/12 16:08:46;;;;;;;2.45;0.40;;;25.00;66.40;;;;;;13046960;22;20530;-89
2022/07/12 16:13:48;;;;;;;2.88;0.32;;;25.20;65.20;;;;;;13046298;22;20181;-89
2022/07/12 16:18:51;;;;;;;0.25;0.25;;;25.00;67.40;;;;;;13046693;22;20181;-90
2022/07/12 16:23:53;;;;;;;2.15;0.35;;;25.20;70.10;;;;;;13046310;22;20165;-89
2022/07/12 16:28:56;;;;;;;1.77;0.88;;;25.40;70.20;;;;;;13046338;22;20169;-89
2022/07/12 16:33:59;;;;;;;1.95;0.40;;;25.10;65.60;;;;;;13024835;22;20177;-91
2022/07/12 16:39:01;;;;;;;3.03;0.40;;;25.00;62.20;;;;;;13027075;22;20587;-95
2022/07/12 16:44:04;;;;;;;3.25;0.40;;;24.60;61.60;;;;;;13049165;22;20166;-89
2022/07/12 16:49:06;;;;;;;3.22;1.27;;;24.50;61.40;;;;;;13048443;22;20169;-91
2022/07/12 16:54:09;;;;;;;1.50;0.30;;;25.20;61.70;;;;;;13046588;22;20181;-93
2022/07/12 16:59:12;;;;;;;0.28;0.20;;;25.00;57.70;;;;;;13045827;22;20201;-91
2022/07/12 17:04:14;;;;;;;1.52;0.40;;;25.00;60.60;;;;;;13047299;22;20165;-90
2022/07/12 17:09:17;;;;;;;2.38;0.30;;;25.20;63.90;;;;;;13044148;22;20230;-90
2022/07/12 17:14:20;;;;;;;1.27;0.43;;;25.20;59.00;;;;;;13045382;22;20211;-90
2022/07/12 17:19:22;;;;;;;0.32;0.20;;;25.00;65.70;;;;;;13044472;22;20557;-91
2022/07/12 17:24:25;;;;;;;0.32;0.32;;;24.90;66.30;;;;;;13047675;22;20169;-90
2022/07/12 17:29:27;;;;;;;2.83;0.40;;;24.80;64.90;;;;;;13044789;22;20169;-91
2022/07/12 17:34:30;;;;;;;3.05;0.30;;;24.50;62.40;;;;;;13045269;22;20177;-90
2022/07/12 17:39:33;;;;;;;0.57;0.30;;;24.80;66.70;;;;;;13045315;22;20587;-91
2022/07/12 17:44:36;;;;;;;0.82;0.40;;;24.90;68.90;;;;;;13017752;22;20231;-90
2022/07/12 17:49:39;;;;;;;0.45;0.22;;;24.80;66.50;;;;;;13045622;22;20207;-90
2022/07/12 17:54:41;;;;;;;0.52;0.47;;;24.70;70.60;;;;;;13046688;22;20169;-90
2022/07/12 17:59:44;;;;;;;0.30;0.30;;;24.60;64.80;;;;;;13042640;22;20200;-89
2022/07/12 18:04:46;;;;;;;2.47;0.30;;;24.80;67.70;;;;;;13043020;22;20567;-88
2022/07/12 18:09:49;;;;;;;4.20;0.50;;;24.70;68.10;;;;;;13041786;22;20185;-91
2022/07/12 18:14:52;;;;;;;2.50;0.30;;;24.20;67.00;;;;;;13042420;22;20483;-90
2022/07/12 18:19:57;;;;;;;1.05;0.45;;;24.10;76.00;;;;;;13017577;22;20201;-89
2022/07/12 18:25:00;;;;;;;0.77;0.30;;;24.00;74.60;;;;;;13039656;22;20177;-90
2022/07/12 18:30:04;;;;;;;0.57;0.35;;;24.20;76.90;;;;;;13042046;22;20177;-90
2022/07/12 18:35:07;;;;;;;1.10;0.30;;;24.20;73.00;;;;;;13016200;22;20234;-90
2022/07/12 18:40:10;;;;;;;3.63;0.60;;;24.10;79.40;;;;;;13042079;22;20205;-92
2022/07/12 18:45:13;;;;;;;2.80;0.50;;;23.60;73.60;;;;;;13017361;22;20550;-90
2022/07/12 18:50:15;;;;;;;3.33;0.28;;;22.90;74.90;;;;;;13044337;22;20165;-90
2022/07/12 18:55:24;;;;;;;5.32;0.50;;;23.10;76.80;;;;;;13042904;22;20235;-89
2022/07/12 19:00:26;;;;;;;1.52;0.40;;;23.40;76.10;;;;;;13041600;22;20230;-89
2022/07/12 19:05:29;;;;;;;1.52;0.30;;;23.60;75.50;;;;;;13041695;22;20215;-89
2022/07/12 19:10:39;;;;;;;4.10;0.47;;;23.70;75.90;;;;;;13042227;22;20177;-90
2022/07/12 19:15:41;;;;;;;4.35;0.75;;;22.80;81.60;;;;;;13043991;22;20169;-87
2022/07/12 19:20:44;;;;;;;2.22;0.80;;;21.90;91.10;;;;;;13043710;22;20397;-88
2022/07/12 19:25:46;;;;;;;1.13;0.70;;;21.50;92.10;;;;;;13063780;22;20543;-90
2022/07/12 19:30:49;;;;;;;5.00;0.85;;;21.00;93.70;;;;;;13042283;22;20573;-90
2022/07/12 19:35:52;;;;;;;1.08;0.90;;;21.10;95.00;;;;;;13018434;22;20242;-90
2022/07/12 19:40:55;;;;;;;3.72;0.60;;;21.30;94.10;;;;;;13048691;22;20246;-91
2022/07/12 19:45:57;;;;;;;2.92;0.52;;;22.20;91.50;;;;;;13050931;22;20191;-92
2022/07/12 19:51:01;;;;;;;1.27;0.90;;;20.20;96.70;;;;;;13076575;22;20166;-96
2022/07/12 19:56:04;;;;;;;0.75;0.50;;;20.20;99.80;;;;;;13086008;22;20191;-94
2022/07/12 20:01:06;;;;;;;1.35;0.30;;;19.70;99.90;;;;;;13050827;22;20509;-94
2022/07/12 20:06:14;;;;;;;3.53;0.50;;;19.30;99.90;;;;;;13095550;22;20181;-94
2022/07/12 20:11:16;;;;;;;2.45;0.43;;;19.10;99.90;;;;;;13069127;22;20207;-94
2022/07/12 20:16:19;;;;;;;1.83;0.50;;;18.70;99.90;;;;;;13092635;22;20165;-93
2022/07/12 20:21:22;;;;;;;3.15;1.40;;;18.60;99.90;;;;;;13060463;22;20185;-88
2022/07/12 20:26:25;;;;;;;1.50;1.30;;;19.80;99.90;;;;;;13046203;22;20162;-90
2022/07/12 20:31:27;;;;;;;2.33;1.05;;;21.40;99.90;;;;;;13044846;22;20177;-91
2022/07/12 20:36:30;;;;;;;0.80;0.63;;;22.20;96.40;;;;;;13046727;22;20226;-90
2022/07/12 20:41:33;;;;;;;1.23;1.13;;;21.90;97.10;;;;;;13043738;22;20593;-91
2022/07/12 20:46:35;;;;;;;1.60;1.27;;;22.20;98.70;;;;;;13043687;22;20274;-91
2022/07/12 20:51:39;;;;;;;5.18;1.17;;;22.60;97.50;;;;;;13044397;22;20207;-91
2022/07/12 20:56:42;;;;;;;1.50;1.30;;;22.20;95.80;;;;;;13043283;22;20647;-89
2022/07/12 21:01:50;;;;;;;1.45;1.15;;;22.10;98.20;;;;;;13041552;22;20197;-89
2022/07/12 21:06:52;;;;;;;2.70;0.75;;;22.60;97.20;;;;;;13043852;22;20185;-89
2022/07/12 21:11:55;;;;;;;1.33;0.93;;;22.90;96.40;;;;;;13045652;22;20500;-89
2022/07/12 21:16:59;;;;;;;1.25;1.05;;;23.00;95.90;;;;;;13042537;22;20173;-89
2022/07/12 21:22:02;;;;;;;1.00;0.77;;;23.10;95.80;;;;;;13015379;22;20200;-89
2022/07/12 21:27:08;;;;;;;1.42;1.20;;;23.10;95.60;;;;;;13044828;22;20192;-90
2022/07/12 21:32:11;;;;;;;1.38;0.70;;;23.20;95.50;;;;;;13062646;22;20173;-89
2022/07/12 21:37:14;;;;;;;1.98;0.93;;;23.10;95.50;;;;;;13045221;22;20173;-89
2022/07/12 21:42:18;;;;;;;1.10;1.00;;;23.10;95.60;;;;;;13044087;22;20251;-89
2022/07/12 21:47:20;;;;;;;1.45;1.10;;;23.10;95.70;;;;;;13042270;22;20173;-87
2022/07/12 21:52:23;;;;;;;1.23;1.00;;;23.10;95.70;;;;;;13045113;22;20187;-88
2022/07/12 21:57:26;;;;;;;1.60;1.23;;;23.10;95.80;;;;;;13017282;22;20181;-88
2022/07/12 22:02:29;;;;;;;1.70;0.90;;;23.10;96.00;;;;;;13042802;22;20684;-88
2022/07/12 22:07:32;;;;;;;1.77;0.93;;;23.10;96.00;;;;;;13043989;22;20199;-88
2022/07/12 22:12:34;;;;;;;1.40;0.88;;;23.10;96.10;;;;;;13043578;22;20685;-89
2022/07/12 22:17:37;;;;;;;1.60;0.88;;;23.00;96.00;;;;;;13017204;22;20485;-88
2022/07/12 22:22:40;;;;;;;1.40;0.98;;;23.00;96.20;;;;;;13043571;22;20585;-88
2022/07/12 22:27:42;;;;;;;1.45;0.77;;;23.00;96.40;;;;;;13043098;22;20226;-88
2022/07/12 22:32:45;;;;;;;1.50;0.80;;;23.00;96.40;;;;;;13041997;22;20601;-88
2022/07/12 22:37:47;;;;;;;2.67;1.00;;;22.90;96.50;;;;;;13042361;22;20234;-89
2022/07/12 22:42:50;;;;;;;1.13;0.65;;;22.80;97.00;;;;;;13042502;22;20236;-89
2022/07/12 22:47:53;;;;;;;0.82;0.70;;;22.80;97.10;;;;;;13042476;22;20640;-88
2022/07/12 22:52:55;;;;;;;1.35;1.25;;;22.90;96.90;;;;;;13044375;22;20224;-88
2022/07/12 22:57:58;;;;;;;0.70;0.70;;;22.70;97.70;;;;;;13042989;22;20486;-89
2022/07/12 23:03:03;;;;;;;1.02;0.68;;;22.80;97.80;;;;;;13016224;22;20586;-88
2022/07/12 23:08:06;;;;;;;1.08;0.90;;;22.80;97.70;;;;;;13043372;22;20555;-89
2022/07/12 23:13:08;;;;;;;0.85;0.80;;;22.90;97.60;;;;;;13049021;22;20211;-88
2022/07/12 23:18:11;;;;;;;1.40;0.82;;;22.80;97.70;;;;;;13021266;22;20242;-89
2022/07/12 23:23:14;;;;;;;0.57;0.50;;;22.70;98.00;;;;;;13048543;22;20185;-88
2022/07/12 23:28:16;;;;;;;0.98;0.85;;;22.60;99.40;;;;;;13045897;22;20803;-88
2022/07/12 23:33:19;;;;;;;1.00;0.70;;;22.70;98.20;;;;;;13049410;22;20226;-88
2022/07/12 23:38:22;;;;;;;1.17;0.80;;;22.60;98.70;;;;;;13048409;22;20264;-88
2022/07/12 23:43:25;;;;;;;1.13;0.77;;;22.60;98.70;;;;;;13065621;22;20181;-88
2022/07/12 23:48:28;;;;;;;3.58;1.25;;;22.70;99.90;;;;;;13048486;22;20551;-89
2022/07/12 23:53:31;;;;;;;2.78;0.85;;;22.20;99.90;;;;;;13045824;22;20207;-88
2022/07/12 23:58:34;;;;;;;1.88;1.08;;;22.40;99.80;;;;;;13046528;22;20181;-88
